CHH2 weather

Hamilton Harbour Seaplane Base
Burlington, Ontario, Canada

Public forecast

Using degrees Celsius for public forecast. Weather courtesy of forecast.io.

Closest aviation weather report (METAR) to Hamilton Harbour Seaplane Base

Closest report is John C. Munro Hamilton International Airport, 8.4 nm (15.5 km) SSW. Retrieved 2020/06/03 16:00 UTC (20 minutes ago):

CYHM 031600Z 26013KT 15SM SCT030 BKN100 24/19 A2963 RMK CU3AC4 SLP032 DENSITY ALT 2400FT

Closest aviation forecast (TAF) to Hamilton Harbour Seaplane Base

Closest forecast is John C. Munro Hamilton International Airport, 8.4 nm (15.5 km) SSW. Retrieved 2020/06/03 12:39 UTC (4 hours ago):

TAF CYHM 031138Z 0312/0412 36005KT P6SM FEW030 BKN100 TEMPO 0312/0313 P6SM -SHRA BKN030 BKN100 PROB30 0312/0313 2SM TSRA BR BKN008 OVC030CB FM031300 28008KT P6SM FEW012 BKN100 FM031800 28010G20KT P6SM SCT050 TEMPO 0322/0401 P6SM -SHRA FM040200 31007KT P6SM FEW070 RMK NXT FCST BY 031800Z